sensor_id;sensor_type;location;lat;lon;timestamp;P1;durP1;ratioP1;P2;durP2;ratioP2
13927;SDS011;7036;50.834;4.718;2023-03-20T00:02:00;2.78;;;2.53;;
13927;SDS011;7036;50.834;4.718;2023-03-20T00:04:27;2.83;;;2.40;;
13927;SDS011;7036;50.834;4.718;2023-03-20T00:06:54;3.33;;;2.60;;
13927;SDS011;7036;50.834;4.718;2023-03-20T00:09:21;4.20;;;3.13;;
13927;SDS011;7036;50.834;4.718;2023-03-20T00:11:49;3.72;;;3.00;;
13927;SDS011;7036;50.834;4.718;2023-03-20T00:14:17;5.47;;;3.10;;
13927;SDS011;7036;50.834;4.718;2023-03-20T00:16:44;2.85;;;2.60;;
13927;SDS011;7036;50.834;4.718;2023-03-20T00:19:19;2.97;;;2.40;;
13927;SDS011;7036;50.834;4.718;2023-03-20T00:21:43;2.53;;;2.33;;
13927;SDS011;7036;50.834;4.718;2023-03-20T00:24:13;3.30;;;2.63;;
13927;SDS011;7036;50.834;4.718;2023-03-20T00:26:40;3.10;;;2.58;;
13927;SDS011;7036;50.834;4.718;2023-03-20T00:29:09;3.75;;;2.95;;
13927;SDS011;7036;50.834;4.718;2023-03-20T00:31:37;3.78;;;2.90;;
13927;SDS011;7036;50.834;4.718;2023-03-20T00:34:04;3.57;;;2.90;;
13927;SDS011;7036;50.834;4.718;2023-03-20T00:36:31;2.60;;;2.40;;
13927;SDS011;7036;50.834;4.718;2023-03-20T00:38:58;4.10;;;2.60;;
13927;SDS011;7036;50.834;4.718;2023-03-20T00:41:32;3.38;;;2.70;;
13927;SDS011;7036;50.834;4.718;2023-03-20T00:44:16;3.77;;;2.90;;
13927;SDS011;7036;50.834;4.718;2023-03-20T00:46:28;2.73;;;2.53;;
13927;SDS011;7036;50.834;4.718;2023-03-20T00:48:54;4.18;;;2.97;;
13927;SDS011;7036;50.834;4.718;2023-03-20T00:51:21;3.30;;;2.65;;
13927;SDS011;7036;50.834;4.718;2023-03-20T00:53:49;3.15;;;2.85;;
13927;SDS011;7036;50.834;4.718;2023-03-20T00:56:32;2.78;;;2.58;;
13927;SDS011;7036;50.834;4.718;2023-03-20T00:59:03;2.80;;;2.60;;
13927;SDS011;7036;50.834;4.718;2023-03-20T01:01:29;3.50;;;2.60;;
13927;SDS011;7036;50.834;4.718;2023-03-20T01:03:57;2.92;;;2.50;;
13927;SDS011;7036;50.834;4.718;2023-03-20T01:06:24;3.30;;;2.63;;
13927;SDS011;7036;50.834;4.718;2023-03-20T01:08:51;4.18;;;2.58;;
13927;SDS011;7036;50.834;4.718;2023-03-20T01:11:19;5.03;;;2.78;;
13927;SDS011;7036;50.834;4.718;2023-03-20T01:13:45;2.72;;;2.53;;
13927;SDS011;7036;50.834;4.718;2023-03-20T01:16:17;4.53;;;2.80;;
13927;SDS011;7036;50.834;4.718;2023-03-20T01:18:45;4.07;;;3.20;;
13927;SDS011;7036;50.834;4.718;2023-03-20T01:21:12;4.55;;;3.25;;
13927;SDS011;7036;50.834;4.718;2023-03-20T01:23:39;3.15;;;2.47;;
13927;SDS011;7036;50.834;4.718;2023-03-20T01:28:44;4.70;;;2.90;;
13927;SDS011;7036;50.834;4.718;2023-03-20T01:31:12;4.35;;;3.03;;
13927;SDS011;7036;50.834;4.718;2023-03-20T01:33:39;4.15;;;3.08;;
13927;SDS011;7036;50.834;4.718;2023-03-20T01:36:08;3.55;;;3.13;;
13927;SDS011;7036;50.834;4.718;2023-03-20T01:38:33;3.97;;;2.65;;
13927;SDS011;7036;50.834;4.718;2023-03-20T01:41:02;3.63;;;2.70;;
13927;SDS011;7036;50.834;4.718;2023-03-20T01:43:33;3.77;;;3.23;;
13927;SDS011;7036;50.834;4.718;2023-03-20T01:46:01;3.35;;;3.05;;
13927;SDS011;7036;50.834;4.718;2023-03-20T01:48:55;3.67;;;3.10;;
13927;SDS011;7036;50.834;4.718;2023-03-20T01:51:02;3.07;;;2.80;;
13927;SDS011;7036;50.834;4.718;2023-03-20T01:53:30;3.83;;;2.75;;
13927;SDS011;7036;50.834;4.718;2023-03-20T01:55:57;4.10;;;3.07;;
13927;SDS011;7036;50.834;4.718;2023-03-20T01:58:25;3.90;;;3.50;;
13927;SDS011;7036;50.834;4.718;2023-03-20T02:03:24;3.77;;;3.10;;
13927;SDS011;7036;50.834;4.718;2023-03-20T02:05:51;3.92;;;3.00;;
13927;SDS011;7036;50.834;4.718;2023-03-20T02:08:23;5.00;;;3.70;;
13927;SDS011;7036;50.834;4.718;2023-03-20T02:10:48;3.20;;;2.90;;
13927;SDS011;7036;50.834;4.718;2023-03-20T02:13:15;3.42;;;2.92;;
13927;SDS011;7036;50.834;4.718;2023-03-20T02:15:53;4.03;;;3.00;;
13927;SDS011;7036;50.834;4.718;2023-03-20T02:18:18;3.60;;;3.10;;
13927;SDS011;7036;50.834;4.718;2023-03-20T02:26:11;3.50;;;3.10;;
13927;SDS011;7036;50.834;4.718;2023-03-20T02:28:58;4.93;;;3.47;;
13927;SDS011;7036;50.834;4.718;2023-03-20T02:34:20;4.30;;;3.27;;
13927;SDS011;7036;50.834;4.718;2023-03-20T02:39:54;3.43;;;3.13;;
13927;SDS011;7036;50.834;4.718;2023-03-20T02:45:25;3.70;;;3.23;;
13927;SDS011;7036;50.834;4.718;2023-03-20T02:47:50;3.20;;;2.90;;
13927;SDS011;7036;50.834;4.718;2023-03-20T02:50:32;3.63;;;3.33;;
13927;SDS011;7036;50.834;4.718;2023-03-20T02:53:12;4.50;;;3.50;;
13927;SDS011;7036;50.834;4.718;2023-03-20T02:55:55;4.90;;;3.53;;
13927;SDS011;7036;50.834;4.718;2023-03-20T02:58:29;4.05;;;3.65;;
13927;SDS011;7036;50.834;4.718;2023-03-20T03:03:32;3.70;;;3.37;;
13927;SDS011;7036;50.834;4.718;2023-03-20T03:06:03;4.17;;;3.50;;
13927;SDS011;7036;50.834;4.718;2023-03-20T03:08:30;5.75;;;3.80;;
13927;SDS011;7036;50.834;4.718;2023-03-20T03:10:57;4.37;;;3.90;;
13927;SDS011;7036;50.834;4.718;2023-03-20T03:13:24;5.70;;;3.60;;
13927;SDS011;7036;50.834;4.718;2023-03-20T03:15:50;4.55;;;3.70;;
13927;SDS011;7036;50.834;4.718;2023-03-20T03:18:18;4.18;;;3.58;;
13927;SDS011;7036;50.834;4.718;2023-03-20T03:20:44;4.45;;;4.05;;
13927;SDS011;7036;50.834;4.718;2023-03-20T03:23:20;4.43;;;3.63;;
13927;SDS011;7036;50.834;4.718;2023-03-20T03:25:53;3.67;;;3.37;;
13927;SDS011;7036;50.834;4.718;2023-03-20T03:28:31;4.40;;;4.00;;
13927;SDS011;7036;50.834;4.718;2023-03-20T03:31:05;6.47;;;4.13;;
13927;SDS011;7036;50.834;4.718;2023-03-20T03:33:33;4.70;;;4.00;;
13927;SDS011;7036;50.834;4.718;2023-03-20T03:36:12;4.73;;;4.23;;
13927;SDS011;7036;50.834;4.718;2023-03-20T03:46:43;5.13;;;3.60;;
13927;SDS011;7036;50.834;4.718;2023-03-20T03:49:08;4.47;;;4.00;;
13927;SDS011;7036;50.834;4.718;2023-03-20T03:51:35;5.28;;;3.95;;
13927;SDS011;7036;50.834;4.718;2023-03-20T03:54:04;5.85;;;4.68;;
13927;SDS011;7036;50.834;4.718;2023-03-20T03:56:29;6.55;;;3.90;;
13927;SDS011;7036;50.834;4.718;2023-03-20T03:58:58;4.32;;;3.67;;
13927;SDS011;7036;50.834;4.718;2023-03-20T04:01:23;4.93;;;4.10;;
13927;SDS011;7036;50.834;4.718;2023-03-20T04:03:51;5.03;;;4.38;;
13927;SDS011;7036;50.834;4.718;2023-03-20T04:06:18;4.50;;;4.10;;
13927;SDS011;7036;50.834;4.718;2023-03-20T04:08:45;5.50;;;4.20;;
13927;SDS011;7036;50.834;4.718;2023-03-20T04:11:16;5.00;;;4.53;;
13927;SDS011;7036;50.834;4.718;2023-03-20T04:13:42;6.57;;;4.87;;
13927;SDS011;7036;50.834;4.718;2023-03-20T04:16:12;4.88;;;4.20;;
13927;SDS011;7036;50.834;4.718;2023-03-20T04:18:39;4.67;;;4.27;;
13927;SDS011;7036;50.834;4.718;2023-03-20T04:21:06;5.82;;;4.18;;
13927;SDS011;7036;50.834;4.718;2023-03-20T04:23:33;5.38;;;4.78;;
13927;SDS011;7036;50.834;4.718;2023-03-20T04:26:02;4.90;;;4.45;;
13927;SDS011;7036;50.834;4.718;2023-03-20T04:28:28;5.93;;;4.50;;
13927;SDS011;7036;50.834;4.718;2023-03-20T04:30:56;4.93;;;4.25;;
13927;SDS011;7036;50.834;4.718;2023-03-20T04:33:23;5.25;;;4.75;;
13927;SDS011;7036;50.834;4.718;2023-03-20T04:35:50;6.65;;;4.38;;
13927;SDS011;7036;50.834;4.718;2023-03-20T04:38:17;6.15;;;4.55;;
13927;SDS011;7036;50.834;4.718;2023-03-20T04:40:44;4.88;;;4.38;;
13927;SDS011;7036;50.834;4.718;2023-03-20T04:43:12;5.65;;;4.93;;
13927;SDS011;7036;50.834;4.718;2023-03-20T04:45:39;5.70;;;5.10;;
13927;SDS011;7036;50.834;4.718;2023-03-20T04:48:06;5.95;;;4.70;;
13927;SDS011;7036;50.834;4.718;2023-03-20T04:50:33;7.90;;;4.75;;
13927;SDS011;7036;50.834;4.718;2023-03-20T04:53:00;6.28;;;5.32;;
13927;SDS011;7036;50.834;4.718;2023-03-20T04:55:28;6.25;;;4.78;;
13927;SDS011;7036;50.834;4.718;2023-03-20T04:57:55;5.40;;;4.75;;
13927;SDS011;7036;50.834;4.718;2023-03-20T05:00:22;5.00;;;4.50;;
13927;SDS011;7036;50.834;4.718;2023-03-20T05:02:49;6.35;;;4.82;;
13927;SDS011;7036;50.834;4.718;2023-03-20T05:05:17;6.05;;;5.30;;
13927;SDS011;7036;50.834;4.718;2023-03-20T05:07:44;8.95;;;5.43;;
13927;SDS011;7036;50.834;4.718;2023-03-20T05:10:11;6.45;;;4.82;;
13927;SDS011;7036;50.834;4.718;2023-03-20T05:12:38;6.82;;;5.00;;
13927;SDS011;7036;50.834;4.718;2023-03-20T05:15:06;5.82;;;5.22;;
13927;SDS011;7036;50.834;4.718;2023-03-20T05:17:33;5.68;;;4.40;;
13927;SDS011;7036;50.834;4.718;2023-03-20T05:20:00;6.65;;;4.90;;
13927;SDS011;7036;50.834;4.718;2023-03-20T05:22:27;6.05;;;4.65;;
13927;SDS011;7036;50.834;4.718;2023-03-20T05:24:55;5.72;;;5.13;;
13927;SDS011;7036;50.834;4.718;2023-03-20T05:27:24;7.43;;;5.05;;
13927;SDS011;7036;50.834;4.718;2023-03-20T05:29:50;5.23;;;4.73;;
13927;SDS011;7036;50.834;4.718;2023-03-20T05:32:18;6.00;;;5.18;;
13927;SDS011;7036;50.834;4.718;2023-03-20T05:34:45;6.03;;;4.60;;
13927;SDS011;7036;50.834;4.718;2023-03-20T05:37:12;6.13;;;5.13;;
13927;SDS011;7036;50.834;4.718;2023-03-20T05:39:39;5.18;;;4.68;;
13927;SDS011;7036;50.834;4.718;2023-03-20T05:42:07;7.03;;;5.07;;
13927;SDS011;7036;50.834;4.718;2023-03-20T05:44:34;7.25;;;4.95;;
13927;SDS011;7036;50.834;4.718;2023-03-20T05:47:01;8.13;;;5.75;;
13927;SDS011;7036;50.834;4.718;2023-03-20T05:49:28;6.38;;;4.88;;
13927;SDS011;7036;50.834;4.718;2023-03-20T05:51:56;6.57;;;5.28;;
13927;SDS011;7036;50.834;4.718;2023-03-20T05:54:23;6.35;;;4.80;;
13927;SDS011;7036;50.834;4.718;2023-03-20T05:56:50;7.35;;;5.40;;
13927;SDS011;7036;50.834;4.718;2023-03-20T05:59:17;6.78;;;4.43;;
13927;SDS011;7036;50.834;4.718;2023-03-20T06:01:45;7.32;;;5.25;;
13927;SDS011;7036;50.834;4.718;2023-03-20T06:04:12;6.53;;;5.53;;
13927;SDS011;7036;50.834;4.718;2023-03-20T06:06:39;7.45;;;5.53;;
13927;SDS011;7036;50.834;4.718;2023-03-20T06:09:06;5.85;;;5.00;;
13927;SDS011;7036;50.834;4.718;2023-03-20T06:11:34;7.90;;;5.35;;
13927;SDS011;7036;50.834;4.718;2023-03-20T06:14:01;5.75;;;5.25;;
13927;SDS011;7036;50.834;4.718;2023-03-20T06:16:28;10.40;;;5.25;;
13927;SDS011;7036;50.834;4.718;2023-03-20T06:18:55;6.10;;;5.00;;
13927;SDS011;7036;50.834;4.718;2023-03-20T06:21:23;7.47;;;5.32;;
13927;SDS011;7036;50.834;4.718;2023-03-20T06:23:50;5.55;;;4.90;;
13927;SDS011;7036;50.834;4.718;2023-03-20T06:26:17;6.88;;;5.50;;
13927;SDS011;7036;50.834;4.718;2023-03-20T06:28:44;7.30;;;5.28;;
13927;SDS011;7036;50.834;4.718;2023-03-20T06:31:11;5.68;;;5.07;;
13927;SDS011;7036;50.834;4.718;2023-03-20T06:33:39;5.45;;;4.95;;
13927;SDS011;7036;50.834;4.718;2023-03-20T06:36:06;7.88;;;5.10;;
13927;SDS011;7036;50.834;4.718;2023-03-20T06:38:33;6.53;;;5.10;;
13927;SDS011;7036;50.834;4.718;2023-03-20T06:41:00;6.68;;;4.70;;
13927;SDS011;7036;50.834;4.718;2023-03-20T06:43:28;6.07;;;5.10;;
13927;SDS011;7036;50.834;4.718;2023-03-20T06:45:55;7.22;;;4.90;;
13927;SDS011;7036;50.834;4.718;2023-03-20T06:48:23;6.80;;;5.25;;
13927;SDS011;7036;50.834;4.718;2023-03-20T06:50:50;6.43;;;4.93;;
13927;SDS011;7036;50.834;4.718;2023-03-20T06:53:17;7.25;;;5.03;;
13927;SDS011;7036;50.834;4.718;2023-03-20T06:55:48;6.57;;;5.03;;
13927;SDS011;7036;50.834;4.718;2023-03-20T06:58:14;5.00;;;4.47;;
13927;SDS011;7036;50.834;4.718;2023-03-20T07:00:41;7.88;;;5.25;;
13927;SDS011;7036;50.834;4.718;2023-03-20T07:03:08;7.45;;;4.88;;
13927;SDS011;7036;50.834;4.718;2023-03-20T07:05:36;7.65;;;5.25;;
13927;SDS011;7036;50.834;4.718;2023-03-20T07:08:03;7.53;;;5.85;;
13927;SDS011;7036;50.834;4.718;2023-03-20T07:10:30;7.38;;;4.75;;
13927;SDS011;7036;50.834;4.718;2023-03-20T07:12:57;6.65;;;5.10;;
13927;SDS011;7036;50.834;4.718;2023-03-20T07:15:25;6.88;;;5.25;;
13927;SDS011;7036;50.834;4.718;2023-03-20T07:17:52;7.95;;;5.25;;
13927;SDS011;7036;50.834;4.718;2023-03-20T07:20:19;6.45;;;4.70;;
13927;SDS011;7036;50.834;4.718;2023-03-20T07:22:46;8.63;;;5.60;;
13927;SDS011;7036;50.834;4.718;2023-03-20T07:25:13;8.57;;;5.15;;
13927;SDS011;7036;50.834;4.718;2023-03-20T07:27:41;6.43;;;4.90;;
13927;SDS011;7036;50.834;4.718;2023-03-20T07:30:09;5.90;;;4.82;;
13927;SDS011;7036;50.834;4.718;2023-03-20T07:32:35;6.65;;;5.07;;
13927;SDS011;7036;50.834;4.718;2023-03-20T07:35:02;7.60;;;4.95;;
13927;SDS011;7036;50.834;4.718;2023-03-20T07:37:30;5.30;;;4.53;;
13927;SDS011;7036;50.834;4.718;2023-03-20T07:39:57;5.22;;;4.70;;
13927;SDS011;7036;50.834;4.718;2023-03-20T07:42:24;5.63;;;4.80;;
13927;SDS011;7036;50.834;4.718;2023-03-20T07:44:51;4.97;;;4.47;;
13927;SDS011;7036;50.834;4.718;2023-03-20T07:47:19;10.10;;;4.72;;
13927;SDS011;7036;50.834;4.718;2023-03-20T07:49:46;5.78;;;4.93;;
13927;SDS011;7036;50.834;4.718;2023-03-20T07:52:13;5.88;;;4.18;;
13927;SDS011;7036;50.834;4.718;2023-03-20T07:54:40;5.47;;;4.72;;
13927;SDS011;7036;50.834;4.718;2023-03-20T07:57:08;7.18;;;4.47;;
13927;SDS011;7036;50.834;4.718;2023-03-20T07:59:35;6.07;;;4.97;;
13927;SDS011;7036;50.834;4.718;2023-03-20T08:02:02;7.75;;;5.00;;
13927;SDS011;7036;50.834;4.718;2023-03-20T08:04:29;8.07;;;4.65;;
13927;SDS011;7036;50.834;4.718;2023-03-20T08:06:56;7.18;;;5.30;;
13927;SDS011;7036;50.834;4.718;2023-03-20T08:09:24;8.68;;;4.68;;
13927;SDS011;7036;50.834;4.718;2023-03-20T08:11:51;6.55;;;4.13;;
13927;SDS011;7036;50.834;4.718;2023-03-20T08:14:18;6.72;;;4.70;;
13927;SDS011;7036;50.834;4.718;2023-03-20T08:16:45;5.10;;;4.28;;
13927;SDS011;7036;50.834;4.718;2023-03-20T08:19:13;7.35;;;4.72;;
13927;SDS011;7036;50.834;4.718;2023-03-20T08:21:40;7.03;;;4.05;;
13927;SDS011;7036;50.834;4.718;2023-03-20T08:24:07;8.10;;;4.45;;
13927;SDS011;7036;50.834;4.718;2023-03-20T08:26:34;7.63;;;4.00;;
13927;SDS011;7036;50.834;4.718;2023-03-20T08:29:01;6.35;;;4.13;;
13927;SDS011;7036;50.834;4.718;2023-03-20T08:31:30;6.90;;;4.35;;
13927;SDS011;7036;50.834;4.718;2023-03-20T08:33:57;6.65;;;3.70;;
13927;SDS011;7036;50.834;4.718;2023-03-20T08:36:25;9.80;;;3.67;;
13927;SDS011;7036;50.834;4.718;2023-03-20T08:38:52;9.80;;;4.20;;
13927;SDS011;7036;50.834;4.718;2023-03-20T08:41:19;6.28;;;3.67;;
13927;SDS011;7036;50.834;4.718;2023-03-20T08:43:46;5.78;;;3.45;;
13927;SDS011;7036;50.834;4.718;2023-03-20T08:46:13;6.90;;;3.78;;
13927;SDS011;7036;50.834;4.718;2023-03-20T08:48:40;6.22;;;3.97;;
13927;SDS011;7036;50.834;4.718;2023-03-20T08:51:07;8.07;;;3.55;;
13927;SDS011;7036;50.834;4.718;2023-03-20T08:53:35;5.57;;;3.67;;
13927;SDS011;7036;50.834;4.718;2023-03-20T08:56:02;7.20;;;4.13;;
13927;SDS011;7036;50.834;4.718;2023-03-20T08:58:30;5.72;;;3.33;;
13927;SDS011;7036;50.834;4.718;2023-03-20T09:01:01;3.77;;;3.30;;
13927;SDS011;7036;50.834;4.718;2023-03-20T09:03:24;4.90;;;3.50;;
13927;SDS011;7036;50.834;4.718;2023-03-20T09:05:51;6.40;;;3.20;;
13927;SDS011;7036;50.834;4.718;2023-03-20T09:08:18;5.03;;;3.60;;
13927;SDS011;7036;50.834;4.718;2023-03-20T09:10:46;4.28;;;3.13;;
13927;SDS011;7036;50.834;4.718;2023-03-20T09:13:13;4.20;;;3.20;;
13927;SDS011;7036;50.834;4.718;2023-03-20T09:15:40;5.20;;;3.50;;
13927;SDS011;7036;50.834;4.718;2023-03-20T09:18:07;7.95;;;3.70;;
13927;SDS011;7036;50.834;4.718;2023-03-20T09:20:34;4.45;;;2.95;;
13927;SDS011;7036;50.834;4.718;2023-03-20T09:23:01;5.32;;;3.75;;
13927;SDS011;7036;50.834;4.718;2023-03-20T09:25:29;6.85;;;3.65;;
13927;SDS011;7036;50.834;4.718;2023-03-20T09:27:56;6.28;;;3.55;;
13927;SDS011;7036;50.834;4.718;2023-03-20T09:30:23;7.90;;;3.63;;
13927;SDS011;7036;50.834;4.718;2023-03-20T09:32:50;5.95;;;2.83;;
13927;SDS011;7036;50.834;4.718;2023-03-20T09:35:18;5.95;;;2.97;;
13927;SDS011;7036;50.834;4.718;2023-03-20T09:37:45;5.18;;;3.20;;
13927;SDS011;7036;50.834;4.718;2023-03-20T09:40:18;3.90;;;3.13;;
13927;SDS011;7036;50.834;4.718;2023-03-20T09:53:16;8.85;;;3.33;;
13927;SDS011;7036;50.834;4.718;2023-03-20T09:55:51;9.03;;;4.13;;
13927;SDS011;7036;50.834;4.718;2023-03-20T09:58:26;18.25;;;4.63;;
13927;SDS011;7036;50.834;4.718;2023-03-20T10:00:50;9.57;;;3.87;;
13927;SDS011;7036;50.834;4.718;2023-03-20T10:03:19;14.98;;;4.00;;
13927;SDS011;7036;50.834;4.718;2023-03-20T10:05:56;11.03;;;3.83;;
13927;SDS011;7036;50.834;4.718;2023-03-20T10:08:25;10.97;;;4.03;;
13927;SDS011;7036;50.834;4.718;2023-03-20T10:11:05;5.03;;;3.25;;
13927;SDS011;7036;50.834;4.718;2023-03-20T10:16:26;7.50;;;3.37;;
13927;SDS011;7036;50.834;4.718;2023-03-20T10:19:05;12.60;;;3.80;;
13927;SDS011;7036;50.834;4.718;2023-03-20T10:21:36;9.67;;;3.60;;
13927;SDS011;7036;50.834;4.718;2023-03-20T10:24:04;4.13;;;3.50;;
13927;SDS011;7036;50.834;4.718;2023-03-20T10:26:30;7.13;;;3.73;;
13927;SDS011;7036;50.834;4.718;2023-03-20T10:28:57;17.90;;;4.10;;
13927;SDS011;7036;50.834;4.718;2023-03-20T10:34:07;5.77;;;3.27;;
13927;SDS011;7036;50.834;4.718;2023-03-20T10:39:39;8.53;;;3.07;;
13927;SDS011;7036;50.834;4.718;2023-03-20T10:42:26;6.80;;;3.37;;
13927;SDS011;7036;50.834;4.718;2023-03-20T10:45:05;8.33;;;3.57;;
13927;SDS011;7036;50.834;4.718;2023-03-20T10:47:31;9.17;;;3.80;;
13927;SDS011;7036;50.834;4.718;2023-03-20T10:49:58;8.18;;;3.55;;
13927;SDS011;7036;50.834;4.718;2023-03-20T10:52:28;8.02;;;3.38;;
13927;SDS011;7036;50.834;4.718;2023-03-20T10:54:55;7.82;;;3.33;;
13927;SDS011;7036;50.834;4.718;2023-03-20T10:57:21;7.22;;;2.90;;
13927;SDS011;7036;50.834;4.718;2023-03-20T10:59:47;5.20;;;3.28;;
13927;SDS011;7036;50.834;4.718;2023-03-20T11:02:14;9.00;;;3.72;;
13927;SDS011;7036;50.834;4.718;2023-03-20T11:04:40;9.15;;;3.60;;
13927;SDS011;7036;50.834;4.718;2023-03-20T11:09:37;9.07;;;3.27;;
13927;SDS011;7036;50.834;4.718;2023-03-20T11:12:04;6.55;;;3.00;;
13927;SDS011;7036;50.834;4.718;2023-03-20T11:14:33;6.72;;;2.75;;
13927;SDS011;7036;50.834;4.718;2023-03-20T11:16:59;10.77;;;4.10;;
13927;SDS011;7036;50.834;4.718;2023-03-20T11:19:26;7.38;;;3.25;;
13927;SDS011;7036;50.834;4.718;2023-03-20T11:21:54;11.70;;;3.42;;
13927;SDS011;7036;50.834;4.718;2023-03-20T11:26:53;10.13;;;3.07;;
13927;SDS011;7036;50.834;4.718;2023-03-20T11:32:02;6.47;;;3.43;;
13927;SDS011;7036;50.834;4.718;2023-03-20T11:34:23;4.80;;;3.15;;
13927;SDS011;7036;50.834;4.718;2023-03-20T11:36:53;7.57;;;2.83;;
13927;SDS011;7036;50.834;4.718;2023-03-20T11:39:23;6.83;;;3.40;;
13927;SDS011;7036;50.834;4.718;2023-03-20T11:41:50;7.03;;;3.33;;
13927;SDS011;7036;50.834;4.718;2023-03-20T11:46:52;6.37;;;3.17;;
13927;SDS011;7036;50.834;4.718;2023-03-20T11:49:18;9.07;;;3.20;;
13927;SDS011;7036;50.834;4.718;2023-03-20T11:51:42;6.67;;;3.77;;
13927;SDS011;7036;50.834;4.718;2023-03-20T11:54:13;7.32;;;3.00;;
13927;SDS011;7036;50.834;4.718;2023-03-20T11:56:37;7.45;;;3.65;;
13927;SDS011;7036;50.834;4.718;2023-03-20T12:01:53;6.07;;;3.47;;
13927;SDS011;7036;50.834;4.718;2023-03-20T12:04:06;6.17;;;3.20;;
13927;SDS011;7036;50.834;4.718;2023-03-20T12:06:42;5.60;;;2.90;;
13927;SDS011;7036;50.834;4.718;2023-03-20T12:12:15;10.17;;;3.30;;
13927;SDS011;7036;50.834;4.718;2023-03-20T12:15:04;4.50;;;2.53;;
13927;SDS011;7036;50.834;4.718;2023-03-20T12:17:34;7.57;;;3.57;;
13927;SDS011;7036;50.834;4.718;2023-03-20T12:20:04;6.20;;;2.60;;
13927;SDS011;7036;50.834;4.718;2023-03-20T12:22:39;6.63;;;3.08;;
13927;SDS011;7036;50.834;4.718;2023-03-20T12:27:46;8.40;;;3.20;;
13927;SDS011;7036;50.834;4.718;2023-03-20T12:30:13;5.47;;;3.00;;
13927;SDS011;7036;50.834;4.718;2023-03-20T12:35:18;7.20;;;2.80;;
13927;SDS011;7036;50.834;4.718;2023-03-20T12:37:40;6.10;;;2.83;;
13927;SDS011;7036;50.834;4.718;2023-03-20T12:40:16;3.78;;;2.40;;
13927;SDS011;7036;50.834;4.718;2023-03-20T12:45:38;6.83;;;2.77;;
13927;SDS011;7036;50.834;4.718;2023-03-20T12:50:56;4.40;;;2.70;;
13927;SDS011;7036;50.834;4.718;2023-03-20T12:53:25;5.40;;;2.50;;
13927;SDS011;7036;50.834;4.718;2023-03-20T13:01:12;5.38;;;2.58;;
13927;SDS011;7036;50.834;4.718;2023-03-20T13:04:06;4.27;;;2.10;;
13927;SDS011;7036;50.834;4.718;2023-03-20T13:17:40;6.17;;;3.40;;
13927;SDS011;7036;50.834;4.718;2023-03-20T13:20:24;4.90;;;2.67;;
13927;SDS011;7036;50.834;4.718;2023-03-20T13:27:41;4.60;;;2.67;;
13927;SDS011;7036;50.834;4.718;2023-03-20T13:32:56;6.00;;;2.53;;
13927;SDS011;7036;50.834;4.718;2023-03-20T13:35:29;3.47;;;2.37;;
13927;SDS011;7036;50.834;4.718;2023-03-20T13:37:56;6.13;;;2.90;;
13927;SDS011;7036;50.834;4.718;2023-03-20T13:40:26;7.45;;;2.97;;
13927;SDS011;7036;50.834;4.718;2023-03-20T13:45:28;4.33;;;2.63;;
13927;SDS011;7036;50.834;4.718;2023-03-20T13:47:52;6.90;;;2.53;;
13927;SDS011;7036;50.834;4.718;2023-03-20T13:50:37;5.75;;;2.70;;
13927;SDS011;7036;50.834;4.718;2023-03-20T13:53:09;6.30;;;2.67;;
13927;SDS011;7036;50.834;4.718;2023-03-20T13:56:00;4.30;;;2.40;;
13927;SDS011;7036;50.834;4.718;2023-03-20T13:58:35;10.57;;;3.80;;
13927;SDS011;7036;50.834;4.718;2023-03-20T14:01:08;5.53;;;2.70;;
13927;SDS011;7036;50.834;4.718;2023-03-20T14:03:50;6.27;;;2.70;;
13927;SDS011;7036;50.834;4.718;2023-03-20T14:06:42;6.90;;;3.08;;
13927;SDS011;7036;50.834;4.718;2023-03-20T14:08:51;5.97;;;2.70;;
13927;SDS011;7036;50.834;4.718;2023-03-20T14:11:35;8.97;;;2.83;;
13927;SDS011;7036;50.834;4.718;2023-03-20T14:13:48;6.03;;;2.93;;
13927;SDS011;7036;50.834;4.718;2023-03-20T14:16:15;11.88;;;3.28;;
13927;SDS011;7036;50.834;4.718;2023-03-20T14:18:42;17.00;;;3.63;;
13927;SDS011;7036;50.834;4.718;2023-03-20T14:21:12;10.35;;;3.17;;
13927;SDS011;7036;50.834;4.718;2023-03-20T14:23:37;11.93;;;3.97;;
13927;SDS011;7036;50.834;4.718;2023-03-20T14:26:19;15.47;;;3.70;;
13927;SDS011;7036;50.834;4.718;2023-03-20T14:28:51;11.97;;;3.53;;
13927;SDS011;7036;50.834;4.718;2023-03-20T14:31:25;11.40;;;3.85;;
13927;SDS011;7036;50.834;4.718;2023-03-20T14:44:37;9.13;;;3.72;;
13927;SDS011;7036;50.834;4.718;2023-03-20T14:47:03;14.30;;;4.27;;
13927;SDS011;7036;50.834;4.718;2023-03-20T14:49:42;8.10;;;3.22;;
13927;SDS011;7036;50.834;4.718;2023-03-20T14:54:38;10.20;;;3.90;;
13927;SDS011;7036;50.834;4.718;2023-03-20T14:57:15;13.82;;;4.72;;
13927;SDS011;7036;50.834;4.718;2023-03-20T14:59:36;11.03;;;4.30;;
13927;SDS011;7036;50.834;4.718;2023-03-20T15:02:03;16.33;;;4.60;;
13927;SDS011;7036;50.834;4.718;2023-03-20T15:04:32;11.10;;;4.43;;
13927;SDS011;7036;50.834;4.718;2023-03-20T15:07:01;16.27;;;4.27;;
13927;SDS011;7036;50.834;4.718;2023-03-20T15:09:45;9.83;;;4.10;;
13927;SDS011;7036;50.834;4.718;2023-03-20T15:12:12;13.50;;;3.63;;
13927;SDS011;7036;50.834;4.718;2023-03-20T15:14:46;12.13;;;4.43;;
13927;SDS011;7036;50.834;4.718;2023-03-20T15:17:21;7.63;;;4.13;;
13927;SDS011;7036;50.834;4.718;2023-03-20T15:19:47;14.60;;;4.40;;
13927;SDS011;7036;50.834;4.718;2023-03-20T15:22:17;20.27;;;5.00;;
13927;SDS011;7036;50.834;4.718;2023-03-20T15:24:41;13.80;;;4.30;;
13927;SDS011;7036;50.834;4.718;2023-03-20T15:27:08;7.55;;;3.42;;
13927;SDS011;7036;50.834;4.718;2023-03-20T15:29:35;7.07;;;3.42;;
13927;SDS011;7036;50.834;4.718;2023-03-20T15:32:02;10.98;;;4.55;;
13927;SDS011;7036;50.834;4.718;2023-03-20T15:34:30;6.57;;;4.05;;
13927;SDS011;7036;50.834;4.718;2023-03-20T15:36:58;9.63;;;3.78;;
13927;SDS011;7036;50.834;4.718;2023-03-20T15:39:25;9.82;;;3.70;;
13927;SDS011;7036;50.834;4.718;2023-03-20T15:41:55;9.20;;;4.07;;
13927;SDS011;7036;50.834;4.718;2023-03-20T15:44:25;8.57;;;3.93;;
13927;SDS011;7036;50.834;4.718;2023-03-20T15:47:01;9.07;;;3.77;;
13927;SDS011;7036;50.834;4.718;2023-03-20T15:49:27;8.77;;;3.60;;
13927;SDS011;7036;50.834;4.718;2023-03-20T15:51:55;7.22;;;4.13;;
13927;SDS011;7036;50.834;4.718;2023-03-20T15:54:21;5.22;;;3.38;;
13927;SDS011;7036;50.834;4.718;2023-03-20T15:56:49;9.70;;;3.47;;
13927;SDS011;7036;50.834;4.718;2023-03-20T15:59:16;14.05;;;3.40;;
13927;SDS011;7036;50.834;4.718;2023-03-20T16:01:46;8.55;;;3.60;;
13927;SDS011;7036;50.834;4.718;2023-03-20T16:04:13;6.90;;;3.37;;
13927;SDS011;7036;50.834;4.718;2023-03-20T16:06:47;7.82;;;3.28;;
13927;SDS011;7036;50.834;4.718;2023-03-20T16:09:13;9.77;;;3.83;;
13927;SDS011;7036;50.834;4.718;2023-03-20T16:11:41;9.80;;;4.13;;
13927;SDS011;7036;50.834;4.718;2023-03-20T16:14:12;6.18;;;3.58;;
13927;SDS011;7036;50.834;4.718;2023-03-20T16:16:39;9.80;;;3.40;;
13927;SDS011;7036;50.834;4.718;2023-03-20T16:19:07;7.82;;;3.72;;
13927;SDS011;7036;50.834;4.718;2023-03-20T16:21:35;10.98;;;3.75;;
13927;SDS011;7036;50.834;4.718;2023-03-20T16:24:04;9.07;;;3.78;;
13927;SDS011;7036;50.834;4.718;2023-03-20T16:26:28;7.65;;;3.67;;
13927;SDS011;7036;50.834;4.718;2023-03-20T16:28:59;7.95;;;3.72;;
13927;SDS011;7036;50.834;4.718;2023-03-20T16:33:58;17.03;;;4.77;;
13927;SDS011;7036;50.834;4.718;2023-03-20T16:36:27;6.80;;;3.77;;
13927;SDS011;7036;50.834;4.718;2023-03-20T16:39:01;6.10;;;3.17;;
13927;SDS011;7036;50.834;4.718;2023-03-20T16:41:30;6.27;;;3.97;;
13927;SDS011;7036;50.834;4.718;2023-03-20T16:43:56;9.23;;;3.97;;
13927;SDS011;7036;50.834;4.718;2023-03-20T16:46:24;4.25;;;3.15;;
13927;SDS011;7036;50.834;4.718;2023-03-20T16:48:51;6.35;;;3.80;;
13927;SDS011;7036;50.834;4.718;2023-03-20T16:51:25;6.00;;;3.67;;
13927;SDS011;7036;50.834;4.718;2023-03-20T16:53:54;7.17;;;3.60;;
13927;SDS011;7036;50.834;4.718;2023-03-20T16:56:38;9.45;;;3.90;;
13927;SDS011;7036;50.834;4.718;2023-03-20T16:58:47;6.30;;;3.67;;
13927;SDS011;7036;50.834;4.718;2023-03-20T17:01:17;7.25;;;3.65;;
13927;SDS011;7036;50.834;4.718;2023-03-20T17:08:45;7.60;;;3.40;;
13927;SDS011;7036;50.834;4.718;2023-03-20T17:11:13;8.13;;;3.38;;
13927;SDS011;7036;50.834;4.718;2023-03-20T17:13:39;8.80;;;4.10;;